Axel, Colorado
Current Conditions -  °F | °C
As of 6:53 PM on Monday 20 Oct 2014 (Local Time) from KEEO Reporting Station
Clear Clear  
Wind Chill: 15°   Ceiling: Unl
Heat Index: 15°   Visibility: 10mi
Dew Point:   Wind: 3mph
Humidity: 48%   Direction: 270°W
Pressure: 30.12"   Gusts: NA
Location:  40.0347°N, 107.628°W
Report Text: KEEO 210053Z AUTO 27003KT 10SM CLR 15/04 A3012 RMK AO2 SLP157 T01500039
Loading
Personal Weather Stations






























Interactive Weather Map
Tropical Storm Tracking
New forecast layout! Learn more

10-Day Weather Forecast

Advertisements
Track Severe Weather on mobile